createdAt,value
2019-05-09T00:00:43.933Z,8.80
2019-05-09T00:03:13.835Z,8.80
2019-05-09T00:05:44.107Z,8.80
2019-05-09T00:08:13.946Z,8.80
2019-05-09T00:10:44.907Z,8.80
2019-05-09T00:13:13.817Z,8.80
2019-05-09T00:15:43.693Z,8.70
2019-05-09T00:18:14.224Z,8.80
2019-05-09T00:20:45.034Z,8.80
2019-05-09T00:23:13.714Z,8.80
2019-05-09T00:25:43.311Z,8.90
2019-05-09T00:28:13.538Z,9.00
2019-05-09T00:30:55.695Z,9.00
2019-05-09T00:33:26.536Z,9.00
2019-05-09T00:35:55.391Z,8.90
2019-05-09T00:38:25.666Z,8.80
2019-05-09T00:40:58.655Z,8.70
2019-05-09T00:43:24.464Z,8.50
2019-05-09T00:46:04.085Z,8.40
2019-05-09T00:48:37.898Z,8.30
2019-05-09T00:51:06.446Z,8.20
2019-05-09T00:53:35.074Z,8.10
2019-05-09T00:56:04.325Z,8.10
2019-05-09T00:58:33.547Z,8.00
2019-05-09T01:01:04.338Z,7.90
2019-05-09T01:03:34.009Z,7.80
2019-05-09T01:06:04.193Z,7.70
2019-05-09T01:08:33.718Z,7.70
2019-05-09T01:11:11.839Z,7.60
2019-05-09T01:13:34.089Z,7.60
2019-05-09T01:16:04.505Z,7.80
2019-05-09T01:18:34.054Z,7.90
2019-05-09T01:21:03.894Z,8.00
2019-05-09T01:23:34.290Z,8.10
2019-05-09T01:26:03.856Z,8.20
2019-05-09T01:28:33.916Z,8.20
2019-05-09T01:31:04.101Z,8.10
2019-05-09T01:33:53.440Z,8.00
2019-05-09T01:36:23.459Z,8.00
2019-05-09T01:38:53.985Z,7.90
2019-05-09T01:41:29.776Z,7.90
2019-05-09T01:43:53.649Z,7.90
2019-05-09T01:46:23.632Z,7.90
2019-05-09T01:48:53.977Z,7.90
2019-05-09T01:51:23.327Z,7.90
2019-05-09T01:53:53.676Z,7.90
2019-05-09T01:56:23.555Z,7.80
2019-05-09T01:58:53.797Z,7.80
2019-05-09T02:01:24.072Z,7.70
2019-05-09T02:03:53.748Z,7.70
2019-05-09T02:06:24.370Z,7.50
2019-05-09T02:08:54.443Z,7.50
2019-05-09T02:11:23.881Z,7.50
2019-05-09T02:13:53.640Z,7.50
2019-05-09T02:16:23.959Z,7.50
2019-05-09T02:18:57.063Z,7.50
2019-05-09T02:21:25.650Z,7.50
2019-05-09T02:23:54.599Z,7.40
2019-05-09T02:26:24.020Z,7.40
2019-05-09T02:28:53.835Z,7.30
2019-05-09T02:31:24.453Z,7.30
2019-05-09T02:33:54.176Z,7.20
2019-05-09T02:36:23.816Z,7.20
2019-05-09T02:38:52.471Z,7.30
2019-05-09T02:41:21.099Z,7.40
2019-05-09T02:43:49.980Z,7.40
2019-05-09T02:46:23.732Z,7.40
2019-05-09T02:48:52.343Z,7.40
2019-05-09T02:51:20.873Z,7.50
2019-05-09T02:53:49.535Z,7.50
2019-05-09T02:56:19.032Z,7.50
2019-05-09T02:59:09.735Z,7.50
2019-05-09T03:01:45.670Z,7.50
2019-05-09T03:04:14.245Z,7.50
2019-05-09T03:06:42.872Z,7.40
2019-05-09T03:09:11.450Z,7.30
2019-05-09T03:11:40.277Z,7.40
2019-05-09T03:14:09.411Z,7.40
2019-05-09T03:16:39.887Z,7.40
2019-05-09T03:19:09.284Z,7.40
2019-05-09T03:21:42.683Z,7.50
2019-05-09T03:24:11.239Z,7.50
2019-05-09T03:26:41.535Z,7.60
2019-05-09T03:29:11.751Z,7.80
2019-05-09T03:31:41.883Z,7.90
2019-05-09T03:34:10.511Z,8.00
2019-05-09T03:36:39.091Z,8.10
2019-05-09T03:39:08.814Z,8.20
2019-05-09T03:41:39.500Z,8.20
2019-05-09T03:44:07.949Z,8.20
2019-05-09T03:46:38.534Z,8.30
2019-05-09T03:49:08.778Z,8.40
2019-05-09T03:51:37.874Z,8.50
2019-05-09T03:54:08.127Z,8.60
2019-05-09T03:56:44.566Z,8.60
2019-05-09T03:59:13.460Z,8.60
2019-05-09T04:01:42.085Z,8.60
2019-05-09T04:04:11.316Z,8.60
2019-05-09T04:06:39.915Z,8.60
2019-05-09T04:09:08.876Z,8.60
2019-05-09T04:11:38.181Z,8.60
2019-05-09T04:14:11.300Z,8.60
2019-05-09T04:16:39.855Z,8.60
2019-05-09T04:19:08.523Z,8.50
2019-05-09T04:21:38.294Z,8.50
2019-05-09T04:24:08.435Z,8.50
2019-05-09T04:26:44.874Z,8.50
2019-05-09T04:29:13.554Z,8.60
2019-05-09T04:31:42.123Z,8.70
2019-05-09T04:34:11.128Z,8.90
2019-05-09T04:36:39.710Z,9.00
2019-05-09T04:39:12.640Z,9.20
2019-05-09T04:41:41.051Z,9.30
2019-05-09T04:44:16.795Z,9.50
2019-05-09T04:46:41.726Z,9.60
2019-05-09T04:49:10.747Z,9.60
2019-05-09T04:51:39.595Z,9.60
2019-05-09T04:54:08.287Z,9.60
2019-05-09T04:56:38.482Z,9.70
2019-05-09T04:59:07.635Z,9.70
2019-05-09T05:01:50.054Z,9.80
2019-05-09T05:04:20.126Z,9.80
2019-05-09T05:06:49.011Z,9.80
2019-05-09T05:09:20.957Z,9.80
2019-05-09T05:11:49.118Z,9.80
2019-05-09T05:14:24.182Z,10.00
2019-05-09T05:16:55.266Z,10.30
2019-05-09T05:19:25.300Z,10.50
2019-05-09T05:21:55.566Z,10.40
2019-05-09T05:24:27.781Z,10.40
2019-05-09T05:26:59.164Z,10.30
2019-05-09T05:29:28.283Z,10.30
2019-05-09T05:31:58.395Z,10.30
2019-05-09T05:34:37.963Z,10.30
2019-05-09T05:37:07.509Z,10.50
2019-05-09T05:39:37.536Z,10.60
2019-05-09T05:42:08.129Z,10.70
2019-05-09T05:44:38.404Z,10.60
2019-05-09T05:47:13.890Z,10.70
2019-05-09T05:49:42.579Z,10.70
2019-05-09T05:52:11.139Z,10.70
2019-05-09T05:54:40.007Z,10.80
2019-05-09T05:57:08.910Z,10.80
2019-05-09T05:59:40.770Z,11.00
2019-05-09T06:02:08.656Z,11.20
2019-05-09T06:04:38.211Z,11.20
2019-05-09T06:07:08.165Z,11.20
2019-05-09T06:09:37.878Z,11.30
2019-05-09T06:12:09.899Z,11.40
2019-05-09T06:14:38.530Z,11.40
2019-05-09T06:17:07.879Z,11.40
2019-05-09T06:19:37.997Z,11.40
2019-05-09T06:22:08.153Z,11.30
2019-05-09T06:24:38.885Z,11.20
2019-05-09T06:27:10.335Z,11.20
2019-05-09T06:29:38.805Z,11.10
2019-05-09T06:32:08.025Z,10.90
2019-05-09T06:34:41.294Z,10.90
2019-05-09T06:37:08.954Z,11.00
2019-05-09T06:39:38.234Z,11.00
2019-05-09T06:42:08.977Z,11.00
2019-05-09T06:44:38.853Z,10.90
2019-05-09T06:47:11.870Z,10.80
2019-05-09T06:49:42.416Z,10.90
2019-05-09T06:52:11.313Z,11.00
2019-05-09T06:54:41.789Z,11.10
2019-05-09T06:57:10.195Z,11.10
2019-05-09T06:59:38.782Z,11.10
2019-05-09T07:02:09.349Z,11.10
2019-05-09T07:04:42.542Z,11.10
2019-05-09T07:07:17.633Z,11.30
2019-05-09T07:09:48.099Z,11.40
2019-05-09T07:12:18.120Z,11.50
2019-05-09T07:14:48.722Z,11.70
2019-05-09T07:17:18.308Z,11.60
2019-05-09T07:19:48.769Z,11.40
2019-05-09T07:22:19.471Z,11.20
2019-05-09T07:25:11.009Z,10.90
2019-05-09T07:27:40.162Z,10.80
2019-05-09T07:30:14.634Z,10.70
2019-05-09T07:33:01.237Z,10.60
2019-05-09T07:35:29.807Z,10.60
2019-05-09T07:37:58.417Z,10.60
2019-05-09T07:40:30.455Z,10.60
2019-05-09T07:42:58.372Z,10.60
2019-05-09T07:45:28.118Z,10.50
2019-05-09T07:47:58.357Z,10.60
2019-05-09T07:50:27.746Z,10.60
2019-05-09T07:52:58.192Z,10.60
2019-05-09T07:55:27.533Z,10.80
2019-05-09T07:57:58.771Z,11.10
2019-05-09T08:00:34.391Z,11.10
2019-05-09T08:03:03.061Z,11.00
2019-05-09T08:05:32.027Z,11.10
2019-05-09T08:08:00.753Z,11.10
2019-05-09T08:10:32.897Z,10.80
2019-05-09T08:12:59.572Z,10.70
2019-05-09T08:15:28.271Z,10.70
2019-05-09T08:17:59.110Z,10.80
2019-05-09T08:20:27.955Z,10.90
2019-05-09T08:22:58.709Z,11.00
2019-05-09T08:25:27.684Z,11.10
2019-05-09T08:27:58.870Z,11.10
2019-05-09T08:30:32.965Z,11.10
2019-05-09T08:32:59.614Z,11.00
2019-05-09T08:35:28.190Z,11.00
2019-05-09T08:37:58.260Z,11.00
2019-05-09T08:40:28.986Z,11.10
2019-05-09T08:42:58.838Z,11.20
2019-05-09T08:45:31.253Z,11.30
2019-05-09T08:47:58.655Z,11.20
2019-05-09T08:50:43.982Z,11.30
2019-05-09T08:53:12.644Z,11.30
2019-05-09T08:55:41.375Z,11.10
2019-05-09T08:58:09.963Z,11.10
2019-05-09T09:00:39.220Z,11.10
2019-05-09T09:03:08.384Z,11.20
2019-05-09T09:05:38.201Z,11.10
2019-05-09T09:08:08.323Z,11.10
2019-05-09T09:10:38.460Z,11.10
2019-05-09T09:13:08.846Z,11.00
2019-05-09T09:16:02.676Z,11.10
2019-05-09T09:18:08.780Z,11.30
2019-05-09T09:20:38.264Z,11.30
2019-05-09T09:23:08.988Z,11.20
2019-05-09T09:25:38.880Z,11.10
2019-05-09T09:28:08.693Z,11.10
2019-05-09T09:30:39.063Z,11.10
2019-05-09T09:33:11.386Z,11.10
2019-05-09T09:35:38.570Z,11.10
2019-05-09T09:38:09.299Z,11.00
2019-05-09T09:40:38.555Z,10.90
2019-05-09T09:43:09.102Z,10.80
2019-05-09T09:45:38.582Z,10.80
2019-05-09T09:48:09.046Z,10.70
2019-05-09T09:50:38.322Z,10.70
2019-05-09T09:53:08.671Z,10.60
2019-05-09T09:55:38.639Z,10.60
2019-05-09T09:58:08.238Z,10.50
2019-05-09T10:00:48.272Z,10.60
2019-05-09T10:03:18.642Z,10.60
2019-05-09T10:05:48.634Z,10.70
2019-05-09T10:08:18.292Z,10.60
2019-05-09T10:10:48.445Z,10.60
2019-05-09T10:13:18.493Z,10.60
2019-05-09T10:16:01.183Z,10.70
2019-05-09T10:18:43.794Z,10.80
2019-05-09T10:21:16.935Z,10.90
2019-05-09T10:23:45.562Z,11.10
2019-05-09T10:26:14.174Z,11.10
2019-05-09T10:28:45.386Z,11.20
2019-05-09T10:31:14.870Z,11.30
2019-05-09T10:33:43.424Z,11.40
2019-05-09T10:36:12.123Z,11.50
2019-05-09T10:38:41.000Z,11.60
2019-05-09T10:41:11.290Z,11.30
2019-05-09T10:43:50.620Z,11.30
2019-05-09T10:46:39.052Z,11.40
2019-05-09T10:48:59.595Z,11.40
2019-05-09T10:51:28.227Z,11.30
2019-05-09T10:53:58.693Z,11.30
2019-05-09T10:56:28.035Z,11.20
2019-05-09T10:58:58.420Z,11.20
2019-05-09T11:01:29.437Z,11.40
2019-05-09T11:03:59.004Z,11.50
2019-05-09T11:06:28.783Z,11.60
2019-05-09T11:08:58.554Z,11.70
2019-05-09T11:11:28.387Z,11.70
2019-05-09T11:13:58.677Z,11.70
2019-05-09T11:16:41.818Z,11.70
2019-05-09T11:18:58.642Z,11.80
2019-05-09T11:21:28.500Z,11.90
2019-05-09T11:23:58.481Z,12.00
2019-05-09T11:26:28.490Z,12.00
2019-05-09T11:28:58.779Z,12.00
2019-05-09T11:31:29.499Z,11.90
2019-05-09T11:33:58.178Z,11.90
2019-05-09T11:36:27.315Z,11.80
2019-05-09T11:38:59.812Z,11.90
2019-05-09T11:41:29.525Z,11.90
2019-05-09T11:43:59.410Z,11.90
2019-05-09T11:46:28.893Z,11.80
2019-05-09T11:48:58.490Z,11.80
2019-05-09T11:51:29.092Z,11.80
2019-05-09T11:53:58.291Z,11.80
2019-05-09T11:56:26.882Z,11.80
2019-05-09T11:58:57.715Z,11.80
2019-05-09T12:01:25.807Z,11.70
2019-05-09T12:03:54.438Z,11.70
2019-05-09T12:06:23.412Z,11.70
2019-05-09T12:08:52.307Z,11.60
2019-05-09T12:11:21.036Z,11.60
2019-05-09T12:13:49.674Z,11.60
2019-05-09T12:16:18.819Z,11.60
2019-05-09T12:18:49.009Z,11.60
2019-05-09T12:21:19.225Z,11.50
2019-05-09T12:23:49.224Z,11.40
2019-05-09T12:26:18.742Z,11.40
2019-05-09T12:28:48.351Z,11.30
2019-05-09T12:31:18.210Z,11.30
2019-05-09T12:33:48.286Z,11.40
2019-05-09T12:36:18.988Z,11.40
2019-05-09T12:38:49.841Z,11.50
2019-05-09T12:41:19.139Z,11.50
2019-05-09T12:43:47.897Z,11.50
2019-05-09T12:46:16.588Z,11.50
2019-05-09T12:48:47.955Z,11.40
2019-05-09T12:51:18.149Z,11.40
2019-05-09T12:53:48.499Z,11.40
2019-05-09T12:56:18.701Z,11.30
2019-05-09T12:58:47.761Z,11.30
2019-05-09T13:01:18.853Z,11.30
2019-05-09T13:03:48.502Z,11.20
2019-05-09T13:06:20.157Z,11.20
2019-05-09T13:08:48.092Z,11.30
2019-05-09T13:11:18.786Z,11.20
2019-05-09T13:13:47.998Z,11.20
2019-05-09T13:16:45.622Z,11.20
2019-05-09T13:19:08.024Z,11.20
2019-05-09T13:21:38.996Z,11.20
2019-05-09T13:24:08.369Z,11.20
2019-05-09T13:26:38.554Z,11.30
2019-05-09T13:29:08.239Z,11.30
2019-05-09T13:31:39.150Z,11.30
2019-05-09T13:34:08.038Z,11.30
2019-05-09T13:36:37.124Z,11.40
2019-05-09T13:39:08.792Z,11.50
2019-05-09T13:41:38.648Z,11.70
2019-05-09T13:44:13.288Z,11.90
2019-05-09T13:46:38.773Z,12.00
2019-05-09T13:49:12.576Z,12.00
2019-05-09T13:51:47.591Z,12.00
2019-05-09T13:54:08.130Z,12.00
2019-05-09T13:56:37.038Z,12.00
2019-05-09T13:59:08.013Z,12.00
2019-05-09T14:01:37.814Z,11.90
2019-05-09T14:04:07.951Z,11.90
2019-05-09T14:06:38.780Z,12.00
2019-05-09T14:09:10.473Z,12.10
2019-05-09T14:11:39.346Z,12.10
2019-05-09T14:14:07.960Z,12.00
2019-05-09T14:16:38.950Z,12.10
2019-05-09T14:19:28.619Z,12.20
2019-05-09T14:21:37.326Z,12.40
2019-05-09T14:24:14.058Z,12.40
2019-05-09T14:26:36.155Z,12.60
2019-05-09T14:29:04.847Z,12.70
2019-05-09T14:31:33.507Z,12.90
2019-05-09T14:34:02.105Z,13.10
2019-05-09T14:36:30.726Z,13.40
2019-05-09T14:38:59.747Z,13.70
2019-05-09T14:41:28.439Z,14.20
2019-05-09T14:43:59.679Z,14.60
2019-05-09T14:46:28.464Z,15.20
2019-05-09T14:48:58.432Z,15.50
2019-05-09T14:51:28.473Z,16.00
2019-05-09T14:53:59.386Z,16.20
2019-05-09T14:56:28.127Z,16.10
2019-05-09T14:58:57.936Z,15.90
2019-05-09T15:01:28.698Z,15.80
2019-05-09T15:03:58.549Z,15.60
2019-05-09T15:06:28.292Z,15.80
2019-05-09T15:08:58.219Z,15.90
2019-05-09T15:11:28.282Z,15.90
2019-05-09T15:13:58.462Z,15.60
2019-05-09T15:16:28.218Z,15.40
2019-05-09T15:18:58.439Z,15.20
2019-05-09T15:21:27.277Z,15.20
2019-05-09T15:23:55.840Z,15.40
2019-05-09T15:26:24.456Z,15.50
2019-05-09T15:28:53.017Z,15.50
2019-05-09T15:31:21.584Z,16.00
2019-05-09T15:33:50.171Z,16.20
2019-05-09T15:36:19.408Z,16.30
2019-05-09T15:38:48.745Z,16.30
2019-05-09T15:41:18.378Z,16.00
2019-05-09T15:43:48.507Z,15.80
2019-05-09T15:46:19.110Z,15.60
2019-05-09T15:48:47.699Z,15.60
2019-05-09T15:51:17.979Z,15.50
2019-05-09T15:53:48.672Z,15.40
2019-05-09T15:56:18.839Z,15.40
2019-05-09T15:58:49.033Z,15.50
2019-05-09T16:01:18.497Z,15.40
2019-05-09T16:03:48.593Z,15.30
2019-05-09T16:06:19.189Z,15.40
2019-05-09T16:08:48.153Z,15.40
2019-05-09T16:11:18.063Z,15.30
2019-05-09T16:13:48.037Z,15.40
2019-05-09T16:16:17.555Z,15.60
2019-05-09T16:18:48.725Z,15.60
2019-05-09T16:21:17.200Z,15.70
2019-05-09T16:23:48.517Z,15.60
2019-05-09T16:26:18.086Z,15.50
2019-05-09T16:28:48.735Z,15.30
2019-05-09T16:31:16.934Z,15.20
2019-05-09T16:33:47.585Z,15.00
2019-05-09T16:36:17.548Z,14.90
2019-05-09T16:38:48.979Z,14.70
2019-05-09T16:41:18.570Z,14.60
2019-05-09T16:43:47.935Z,14.60
2019-05-09T16:46:18.116Z,14.50
2019-05-09T16:48:47.576Z,14.40
2019-05-09T16:51:18.199Z,14.30
2019-05-09T16:53:49.864Z,14.30
2019-05-09T16:56:18.168Z,14.20
2019-05-09T16:58:47.151Z,14.20
2019-05-09T17:01:18.555Z,14.30
2019-05-09T17:03:46.930Z,14.30
2019-05-09T17:06:18.259Z,14.60
2019-05-09T17:08:47.559Z,15.00
2019-05-09T17:11:19.130Z,15.30
2019-05-09T17:13:46.783Z,15.40
2019-05-09T17:16:17.610Z,15.50
2019-05-09T17:18:45.782Z,15.40
2019-05-09T17:21:34.575Z,15.20
2019-05-09T17:24:04.927Z,15.00
2019-05-09T17:26:33.812Z,14.70
2019-05-09T17:29:02.440Z,14.40
2019-05-09T17:31:31.031Z,14.30
2019-05-09T17:33:59.616Z,14.20
2019-05-09T17:36:28.626Z,14.00
2019-05-09T17:38:57.367Z,13.90
2019-05-09T17:41:28.291Z,13.70
2019-05-09T17:43:58.210Z,13.70
2019-05-09T17:46:27.521Z,13.50
2019-05-09T17:48:58.254Z,13.40
2019-05-09T17:51:34.071Z,13.30
2019-05-09T17:53:58.345Z,13.10
2019-05-09T17:56:27.131Z,13.10
2019-05-09T17:58:57.717Z,13.00
2019-05-09T18:01:27.740Z,13.10
2019-05-09T18:03:59.088Z,13.00
2019-05-09T18:06:28.139Z,13.00
2019-05-09T18:08:57.714Z,13.00
2019-05-09T18:11:26.498Z,13.00
2019-05-09T18:13:55.134Z,13.00
2019-05-09T18:16:23.722Z,12.90
2019-05-09T18:18:54.865Z,13.00
2019-05-09T18:21:23.862Z,12.90
2019-05-09T18:23:52.561Z,12.90
2019-05-09T18:26:21.219Z,12.90
2019-05-09T18:28:49.915Z,12.90
2019-05-09T18:31:19.002Z,12.80
2019-05-09T18:33:49.178Z,12.70
2019-05-09T18:36:17.735Z,12.70
2019-05-09T18:38:48.024Z,12.70
2019-05-09T18:41:17.737Z,12.70
2019-05-09T18:43:47.960Z,12.70
2019-05-09T18:46:17.902Z,12.60
2019-05-09T18:48:47.194Z,12.50
2019-05-09T18:51:15.895Z,12.50
2019-05-09T18:53:44.568Z,12.30
2019-05-09T18:56:13.262Z,12.10
2019-05-09T18:58:42.231Z,12.00
2019-05-09T19:01:11.195Z,11.90
2019-05-09T19:03:39.871Z,11.90
2019-05-09T19:06:08.602Z,11.80
2019-05-09T19:08:37.159Z,11.70
2019-05-09T19:11:06.243Z,11.70
2019-05-09T19:13:34.841Z,11.50
2019-05-09T19:16:08.091Z,11.40
2019-05-09T19:18:53.368Z,11.30
2019-05-09T19:21:23.735Z,11.30
2019-05-09T19:23:52.295Z,11.20
2019-05-09T19:26:35.959Z,11.20
2019-05-09T19:29:06.895Z,11.20
2019-05-09T19:31:36.235Z,11.20
2019-05-09T19:34:05.775Z,11.20
2019-05-09T19:36:34.579Z,11.30
2019-05-09T19:39:05.254Z,11.30
2019-05-09T19:41:34.501Z,11.50
2019-05-09T19:44:03.200Z,11.60
2019-05-09T19:46:32.172Z,11.60
2019-05-09T19:49:00.763Z,11.60
2019-05-09T19:51:48.763Z,11.70
2019-05-09T19:54:17.321Z,11.70
2019-05-09T19:56:45.947Z,11.70
2019-05-09T19:59:14.847Z,11.70
2019-05-09T20:01:43.848Z,11.70
2019-05-09T20:04:12.846Z,11.70
2019-05-09T20:06:41.403Z,11.70
2019-05-09T20:09:12.363Z,11.70
2019-05-09T20:11:49.127Z,11.70
2019-05-09T20:14:19.967Z,11.70
2019-05-09T20:16:50.162Z,11.70
2019-05-09T20:19:18.826Z,11.80
2019-05-09T20:21:47.772Z,11.80
2019-05-09T20:24:16.331Z,11.70
2019-05-09T20:26:45.235Z,11.70
2019-05-09T20:29:14.134Z,11.70
2019-05-09T20:31:42.671Z,11.70
2019-05-09T20:34:11.699Z,11.70
2019-05-09T20:36:40.641Z,11.70
2019-05-09T20:39:09.532Z,11.70
2019-05-09T20:41:38.444Z,11.70
2019-05-09T20:44:07.257Z,11.70
2019-05-09T20:46:36.135Z,11.70
2019-05-09T20:49:05.020Z,11.70
2019-05-09T20:51:33.907Z,11.70
2019-05-09T20:54:02.846Z,11.60
2019-05-09T20:56:31.596Z,11.60
2019-05-09T20:59:00.338Z,11.60
2019-05-09T21:01:29.298Z,11.60
2019-05-09T21:04:00.484Z,11.50
2019-05-09T21:06:28.911Z,11.50
2019-05-09T21:08:57.726Z,11.50
2019-05-09T21:11:26.795Z,11.40
2019-05-09T21:13:55.611Z,11.30
2019-05-09T21:16:24.798Z,11.20
2019-05-09T21:18:53.819Z,11.10
2019-05-09T21:21:22.563Z,11.10
2019-05-09T21:23:51.467Z,11.00
2019-05-09T21:26:20.387Z,10.90
2019-05-09T21:28:49.142Z,10.80
2019-05-09T21:31:17.988Z,10.80
2019-05-09T21:33:46.735Z,10.80
2019-05-09T21:36:15.599Z,10.70
2019-05-09T21:38:44.227Z,10.60
2019-05-09T21:41:13.163Z,10.60
2019-05-09T21:43:41.875Z,10.60
2019-05-09T21:46:10.544Z,10.50
2019-05-09T21:48:39.110Z,10.50
2019-05-09T21:51:07.682Z,10.50
2019-05-09T21:53:40.997Z,10.60
2019-05-09T21:56:06.691Z,10.60
2019-05-09T21:58:35.605Z,10.70
2019-05-09T22:01:05.531Z,10.70
2019-05-09T22:03:34.511Z,10.60
2019-05-09T22:06:03.126Z,10.60
2019-05-09T22:08:32.083Z,10.60
2019-05-09T22:11:01.082Z,10.70
2019-05-09T22:13:29.642Z,10.70
2019-05-09T22:15:58.298Z,10.70
2019-05-09T22:18:27.030Z,10.70
2019-05-09T22:20:55.699Z,10.80
2019-05-09T22:23:24.267Z,10.80
2019-05-09T22:25:53.190Z,10.80
2019-05-09T22:28:21.916Z,10.80
2019-05-09T22:30:50.579Z,10.80
2019-05-09T22:33:19.134Z,10.80
2019-05-09T22:35:47.725Z,10.80
2019-05-09T22:38:16.344Z,10.80
2019-05-09T22:40:45.003Z,10.80
2019-05-09T22:43:13.879Z,10.80
2019-05-09T22:45:42.431Z,10.80
2019-05-09T22:48:11.044Z,10.80
2019-05-09T22:50:39.667Z,10.70
2019-05-09T22:53:08.327Z,10.70
2019-05-09T22:55:36.956Z,10.80
2019-05-09T22:58:05.647Z,10.80
2019-05-09T23:00:34.179Z,10.80
2019-05-09T23:03:03.055Z,10.80
2019-05-09T23:05:31.710Z,10.80
2019-05-09T23:08:00.314Z,10.80
2019-05-09T23:10:29.315Z,10.80
2019-05-09T23:12:57.907Z,10.80
2019-05-09T23:15:26.527Z,10.80
2019-05-09T23:17:55.206Z,10.80
2019-05-09T23:20:43.766Z,10.70
2019-05-09T23:23:28.806Z,10.60
2019-05-09T23:25:57.808Z,10.40
2019-05-09T23:28:27.131Z,10.20
2019-05-09T23:30:57.467Z,10.00
2019-05-09T23:33:28.154Z,9.90
2019-05-09T23:35:56.719Z,9.90
2019-05-09T23:38:25.815Z,9.90
2019-05-09T23:40:54.391Z,9.80
2019-05-09T23:43:23.050Z,9.70
2019-05-09T23:45:51.686Z,9.60
2019-05-09T23:48:20.238Z,9.50
2019-05-09T23:50:48.819Z,9.40
2019-05-09T23:53:21.094Z,9.30
2019-05-09T23:56:07.659Z,9.20
2019-05-09T23:58:54.426Z,9.20
